MSC Flavia — 3FBD7 — position and weather

sailwx.info

Track history (hours):
 
Tides and Currents Weather Stations Pressure Air Temp Water Temp Dewpoint Dewpoint Depression Visibility Wind Speed Wind Dir Waves Ship Positions

MSC Flavia

Last reported at 2017-Aug-09 07:49 UTC. Time now 2017-Aug-18 23:29 UTC.
Position N 38°07' W 135°10'.
Warning: this ship's position is 9 days out of date.

Length 366 m; draft 14.9 m.

Type: Ship (hazmat cat A). MMSI: 373004000.

Date/timePositionNaut miles runAvg speedWind from/ knotsBaromVisibWave heightAir tempDewpointWater temp
2017-Aug-09 07:49N 38°07' W 135°10'719.2
2017-Aug-09 07:25N 38°03' W 135°02'3818.9
2017-Aug-09 05:23N 37°43' W 134°21'718.9
2017-Aug-09 05:00N 37°39' W 134°13'1018.9
2017-Aug-09 04:29N 37°33' W 134°03'1018.9
2017-Aug-09 03:58N 37°28' W 133°52'919.0
2017-Aug-09 03:29N 37°23' W 133°43'1019.1
2017-Aug-09 02:59N 37°18' W 133°33'1019.1
2017-Aug-09 02:27N 37°12' W 133°22'919.2
2017-Aug-09 02:00N 37°08' W 133°13'918.7
2017-Aug-09 01:29N 37°03' W 133°03'918.8
2017-Aug-09 01:00N 36°58' W 132°53'1018.8
2017-Aug-09 00:30N 36°52' W 132°43'1518.9
2017-Aug-08 23:41N 36°44' W 132°27'419.1
2017-Aug-08 23:30N 36°42' W 132°23'5118.9
2017-Aug-08 20:50N 36°14' W 131°31'919.0
2017-Aug-08 20:22N 36°09' W 131°22'719.1
2017-Aug-08 20:00N 36°05' W 131°15'1318.8
2017-Aug-08 19:20N 35°58' W 131°02'618.9
2017-Aug-08 19:00N 35°54' W 130°56'1319.1
2017-Aug-08 18:20N 35°47' W 130°43'1519.1
2017-Aug-08 17:32N 35°39' W 130°27'4719.2
2017-Aug-08 15:05N 35°12' W 129°40'118.8
2017-Aug-08 15:00N 35°11' W 129°39'33919.1
2017-Aug-07 21:16N 31°48' W 124°13'2119.3
2017-Aug-07 20:09N 31°35' W 123°53'319.2
2017-Aug-07 19:59N 31°33' W 123°50'1319.2
2017-Aug-07 19:18N 31°25' W 123°38'619.2
2017-Aug-07 19:00N 31°21' W 123°33'1019.3
2017-Aug-07 18:30N 31°15' W 123°24'1419.2
2017-Aug-07 17:47N 31°07' W 123°11'619.1
2017-Aug-07 17:28N 31°03' W 123°06'3219.1
2017-Aug-07 15:46N 30°43' W 122°36'1319.0
2017-Aug-07 15:04N 30°34' W 122°24'118.6
2017-Aug-07 15:00N 30°33' W 122°23'1019.0
2017-Aug-07 14:27N 30°27' W 122°14'818.9
2017-Aug-07 14:00N 30°22' W 122°06'918.8
2017-Aug-07 13:30N 30°16' W 121°58'2518.9
2017-Aug-07 12:10N 29°60' W 121°35'40219.1
2017-Aug-06 15:09N 25°42' W 115°46'319.4
2017-Aug-06 15:00N 25°40' W 115°44'19319.4
2017-Aug-06 05:05N 23°40' W 112°57'118.7
2017-Aug-06 05:00N 23°39' W 112°56'2418.8
2017-Aug-06 03:44N 23°25' W 112°36'718.5
2017-Aug-06 03:22N 23°21' W 112°29'718.6
2017-Aug-06 03:00N 23°17' W 112°24'  
Track history (hours):
 
Tides and Currents Weather Stations Pressure Air Temp Water Temp Dewpoint Dewpoint Depression Visibility Wind Speed Wind Dir Waves Ship Positions

MSC Flavia

Last reported at 2017-Aug-09 07:49 UTC. Time now 2017-Aug-18 23:29 UTC.
Position N 38°07' W 135°10'.
Warning: this ship's position is 9 days out of date.

Length 366 m; draft 14.9 m.

Type: Ship (hazmat cat A). MMSI: 373004000.

Date/timePositionNaut miles runAvg speedWind from/ knotsBaromVisibWave heightAir tempDewpointWater temp
2017-Aug-09 07:49N 38°07' W 135°10'719.2
2017-Aug-09 07:25N 38°03' W 135°02'3818.9
2017-Aug-09 05:23N 37°43' W 134°21'718.9
2017-Aug-09 05:00N 37°39' W 134°13'1018.9
2017-Aug-09 04:29N 37°33' W 134°03'1018.9
2017-Aug-09 03:58N 37°28' W 133°52'919.0
2017-Aug-09 03:29N 37°23' W 133°43'1019.1
2017-Aug-09 02:59N 37°18' W 133°33'1019.1
2017-Aug-09 02:27N 37°12' W 133°22'919.2
2017-Aug-09 02:00N 37°08' W 133°13'918.7
2017-Aug-09 01:29N 37°03' W 133°03'918.8
2017-Aug-09 01:00N 36°58' W 132°53'1018.8
2017-Aug-09 00:30N 36°52' W 132°43'1518.9
2017-Aug-08 23:41N 36°44' W 132°27'419.1
2017-Aug-08 23:30N 36°42' W 132°23'5118.9
2017-Aug-08 20:50N 36°14' W 131°31'919.0
2017-Aug-08 20:22N 36°09' W 131°22'719.1
2017-Aug-08 20:00N 36°05' W 131°15'1318.8
2017-Aug-08 19:20N 35°58' W 131°02'618.9
2017-Aug-08 19:00N 35°54' W 130°56'1319.1
2017-Aug-08 18:20N 35°47' W 130°43'1519.1
2017-Aug-08 17:32N 35°39' W 130°27'4719.2
2017-Aug-08 15:05N 35°12' W 129°40'118.8
2017-Aug-08 15:00N 35°11' W 129°39'33919.1
2017-Aug-07 21:16N 31°48' W 124°13'2119.3
2017-Aug-07 20:09N 31°35' W 123°53'319.2
2017-Aug-07 19:59N 31°33' W 123°50'1319.2
2017-Aug-07 19:18N 31°25' W 123°38'619.2
2017-Aug-07 19:00N 31°21' W 123°33'1019.3
2017-Aug-07 18:30N 31°15' W 123°24'1419.2
2017-Aug-07 17:47N 31°07' W 123°11'619.1
2017-Aug-07 17:28N 31°03' W 123°06'3219.1
2017-Aug-07 15:46N 30°43' W 122°36'1319.0
2017-Aug-07 15:04N 30°34' W 122°24'118.6
2017-Aug-07 15:00N 30°33' W 122°23'1019.0
2017-Aug-07 14:27N 30°27' W 122°14'818.9
2017-Aug-07 14:00N 30°22' W 122°06'918.8
2017-Aug-07 13:30N 30°16' W 121°58'2518.9
2017-Aug-07 12:10N 29°60' W 121°35'40219.1
2017-Aug-06 15:09N 25°42' W 115°46'319.4
2017-Aug-06 15:00N 25°40' W 115°44'19319.4
2017-Aug-06 05:05N 23°40' W 112°57'118.7
2017-Aug-06 05:00N 23°39' W 112°56'2418.8
2017-Aug-06 03:44N 23°25' W 112°36'718.5
2017-Aug-06 03:22N 23°21' W 112°29'718.6
2017-Aug-06 03:00N 23°17' W 112°24'  

Dump ship's entire track history